Time,TemperatureF,DewpointF,PressureIn,WindDirection,WindDirectionDegrees,WindSpeedMPH,WindSpeedGustMPH,Humidity,HourlyPrecipIn,Conditions,Clouds,dailyrainin,SoftwareType,DateUTC
2013-04-13 00:03:00,35.2,29.0,29.72,WSW,247,3.0,10.0,78,0.00,,,-99.99,WeatherLink 5.7,2013-04-13 05:03:00,
2013-04-13 00:20:00,35.0,28.8,29.72,WSW,247,5.0,16.0,78,0.00,,,-99.99,WeatherLink 5.7,2013-04-13 05:20:00,
2013-04-13 00:33:00,34.9,28.7,29.73,West,270,4.0,15.0,78,0.00,,,-99.99,WeatherLink 5.7,2013-04-13 05:33:00,
2013-04-13 00:48:00,34.7,28.5,29.73,West,270,3.0,11.0,78,0.00,,,-99.99,WeatherLink 5.7,2013-04-13 05:48:00,
2013-04-13 01:03:00,34.7,28.5,29.73,West,270,5.0,14.0,78,0.00,,,-99.99,WeatherLink 5.7,2013-04-13 06:03:00,
2013-04-13 01:18:00,34.6,28.4,29.73,WSW,247,5.0,18.0,78,0.00,,,-99.99,WeatherLink 5.7,2013-04-13 06:18:00,
2013-04-13 01:33:00,34.6,28.1,29.73,WSW,247,5.0,13.0,77,0.00,,,-99.99,WeatherLink 5.7,2013-04-13 06:33:00,
2013-04-13 01:45:00,34.4,27.9,29.73,WSW,247,5.0,14.0,77,0.00,,,-99.99,WeatherLink 5.7,2013-04-13 06:45:00,
2013-04-13 02:03:00,34.4,27.9,29.73,WSW,247,5.0,14.0,77,0.00,,,-99.99,WeatherLink 5.7,2013-04-13 07:03:00,
2013-04-13 02:18:00,34.3,27.8,29.73,WSW,247,5.0,15.0,77,0.00,,,-99.99,WeatherLink 5.7,2013-04-13 07:18:00,
2013-04-13 02:33:00,34.1,27.3,29.72,WSW,247,5.0,16.0,76,0.00,,,-99.99,WeatherLink 5.7,2013-04-13 07:33:00,
2013-04-13 02:48:00,34.1,27.3,29.72,WSW,247,5.0,14.0,76,0.00,,,-99.99,WeatherLink 5.7,2013-04-13 07:48:00,
2013-04-13 03:03:00,34.0,26.6,29.72,WSW,247,5.0,14.0,74,0.00,,,-99.99,WeatherLink 5.7,2013-04-13 08:03:00,
2013-04-13 03:18:00,34.0,26.6,29.72,WSW,247,4.0,13.0,74,0.00,,,-99.99,WeatherLink 5.7,2013-04-13 08:18:00,
2013-04-13 03:33:00,33.8,26.7,29.72,WSW,247,5.0,15.0,75,0.00,,,-99.99,WeatherLink 5.7,2013-04-13 08:33:00,
2013-04-13 03:48:00,33.8,26.7,29.72,WSW,247,4.0,14.0,75,0.00,,,-99.99,WeatherLink 5.7,2013-04-13 08:48:00,
2013-04-13 04:03:00,33.7,26.6,29.72,WSW,247,6.0,14.0,75,0.00,,,-99.99,WeatherLink 5.7,2013-04-13 09:03:00,
2013-04-13 04:18:00,33.5,26.7,29.72,WSW,247,6.0,17.0,76,0.00,,,-99.99,WeatherLink 5.7,2013-04-13 09:18:00,
2013-04-13 04:33:00,33.4,27.9,29.73,WSW,247,5.0,15.0,80,0.00,,,-99.99,WeatherLink 5.7,2013-04-13 09:33:00,
2013-04-13 04:48:00,33.2,26.5,29.73,West,270,5.0,15.0,76,0.00,,,-99.99,WeatherLink 5.7,2013-04-13 09:48:00,
2013-04-13 05:00:00,33.1,26.7,29.73,West,270,6.0,16.0,77,0.00,,,-99.99,WeatherLink 5.7,2013-04-13 10:00:00,
2013-04-13 05:19:00,32.9,26.5,29.73,WSW,247,6.0,18.0,77,0.00,,,-99.99,WeatherLink 5.7,2013-04-13 10:19:00,
2013-04-13 05:30:00,32.8,26.7,29.73,West,270,6.0,18.0,78,0.00,,,-99.99,WeatherLink 5.7,2013-04-13 10:30:00,
2013-04-13 05:48:00,32.7,26.9,29.73,West,270,4.0,13.0,79,0.00,,,-99.99,WeatherLink 5.7,2013-04-13 10:48:00,
2013-04-13 06:03:00,32.7,26.9,29.73,West,270,5.0,14.0,79,0.00,,,-99.99,WeatherLink 5.7,2013-04-13 11:03:00,
2013-04-13 06:15:00,32.7,26.9,29.74,WSW,247,4.0,14.0,79,0.00,,,-99.99,WeatherLink 5.7,2013-04-13 11:15:00,
2013-04-13 06:33:00,32.7,26.9,29.74,West,270,5.0,13.0,79,0.00,,,-99.99,WeatherLink 5.7,2013-04-13 11:33:00,
2013-04-13 06:48:00,32.7,26.9,29.74,WSW,247,4.0,12.0,79,0.00,,,-99.99,WeatherLink 5.7,2013-04-13 11:48:00,
2013-04-13 07:03:00,32.8,27.0,29.74,West,270,6.0,13.0,79,0.00,,,-99.99,WeatherLink 5.7,2013-04-13 12:03:00,
2013-04-13 07:18:00,32.9,26.8,29.75,West,270,4.0,14.0,78,0.00,,,-99.99,WeatherLink 5.7,2013-04-13 12:18:00,
2013-04-13 07:33:00,32.9,26.8,29.75,West,270,4.0,17.0,78,0.00,,,-99.99,WeatherLink 5.7,2013-04-13 12:33:00,
2013-04-13 07:48:00,33.1,27.0,29.76,West,270,5.0,16.0,78,0.00,,,-99.99,WeatherLink 5.7,2013-04-13 12:48:00,
2013-04-13 08:03:00,33.1,27.0,29.77,WSW,247,7.0,18.0,78,0.00,,,-99.99,WeatherLink 5.7,2013-04-13 13:03:00,
2013-04-13 08:15:00,33.2,27.1,29.77,West,270,5.0,18.0,78,0.00,,,-99.99,WeatherLink 5.7,2013-04-13 13:15:00,
2013-04-13 08:33:00,33.2,27.4,29.77,West,270,7.0,19.0,79,0.00,,,-99.99,WeatherLink 5.7,2013-04-13 13:33:00,
2013-04-13 08:48:00,33.4,27.6,29.78,West,270,6.0,20.0,79,0.00,,,-99.99,WeatherLink 5.7,2013-04-13 13:48:00,
2013-04-13 09:03:00,33.5,27.7,29.78,West,270,6.0,20.0,79,0.00,,,-99.99,WeatherLink 5.7,2013-04-13 14:03:00,
2013-04-13 09:18:00,34.1,28.3,29.78,West,270,6.0,14.0,79,0.00,,,-99.99,WeatherLink 5.7,2013-04-13 14:18:00,
2013-04-13 09:33:00,34.9,28.4,29.78,West,270,7.0,17.0,77,0.00,,,-99.99,WeatherLink 5.7,2013-04-13 14:33:00,
2013-04-13 09:48:00,36.3,29.5,29.78,West,270,7.0,19.0,76,0.00,,,-99.99,WeatherLink 5.7,2013-04-13 14:48:00,
2013-04-13 10:03:00,35.8,28.0,29.79,WNW,292,7.0,15.0,73,0.00,,,-99.99,WeatherLink 5.7,2013-04-13 15:03:00,
2013-04-13 10:18:00,35.8,27.7,29.79,West,270,7.0,19.0,72,0.00,,,-99.99,WeatherLink 5.7,2013-04-13 15:18:00,
2013-04-13 10:33:00,35.9,27.1,29.80,WNW,292,6.0,17.0,70,0.00,,,-99.99,WeatherLink 5.7,2013-04-13 15:33:00,
2013-04-13 10:48:00,36.5,26.9,29.80,WNW,292,7.0,20.0,68,0.00,,,-99.99,WeatherLink 5.7,2013-04-13 15:48:00,
2013-04-13 11:03:00,36.0,26.8,29.80,WNW,292,8.0,18.0,69,0.00,,,-99.99,WeatherLink 5.7,2013-04-13 16:03:00,
2013-04-13 11:15:00,36.0,26.8,29.81,WNW,292,6.0,18.0,69,0.00,,,-99.99,WeatherLink 5.7,2013-04-13 16:15:00,
2013-04-13 11:33:00,36.3,27.4,29.81,WSW,247,8.0,19.0,70,0.00,,,-99.99,WeatherLink 5.7,2013-04-13 16:33:00,
2013-04-13 11:48:00,36.6,26.3,29.81,West,270,8.0,19.0,66,0.00,,,-99.99,WeatherLink 5.7,2013-04-13 16:48:00,
2013-04-13 12:03:00,37.0,26.3,29.82,WNW,292,6.0,18.0,65,0.00,,,-99.99,WeatherLink 5.7,2013-04-13 17:03:00,
2013-04-13 12:18:00,37.0,25.6,29.82,WNW,292,7.0,19.0,63,0.00,,,-99.99,WeatherLink 5.7,2013-04-13 17:18:00,
2013-04-13 12:33:00,37.6,25.7,29.82,WSW,247,7.0,18.0,62,0.00,,,-99.99,WeatherLink 5.7,2013-04-13 17:33:00,
2013-04-13 12:48:00,37.6,25.7,29.82,West,270,7.0,18.0,62,0.00,,,-99.99,WeatherLink 5.7,2013-04-13 17:48:00,
2013-04-13 13:03:00,37.6,25.7,29.82,West,270,8.0,19.0,62,0.00,,,-99.99,WeatherLink 5.7,2013-04-13 18:03:00,
2013-04-13 13:18:00,37.5,27.2,29.83,West,270,9.0,20.0,66,0.00,,,-99.99,WeatherLink 5.7,2013-04-13 18:18:00,
2013-04-13 13:33:00,37.3,25.8,29.83,WSW,247,8.0,20.0,63,0.00,,,-99.99,WeatherLink 5.7,2013-04-13 18:33:00,
2013-04-13 13:48:00,37.0,25.6,29.83,West,270,7.0,19.0,63,0.00,,,-99.99,WeatherLink 5.7,2013-04-13 18:48:00,
2013-04-13 14:03:00,37.3,26.6,29.83,WSW,247,8.0,21.0,65,0.00,,,-99.99,WeatherLink 5.7,2013-04-13 19:03:00,
2013-04-13 14:18:00,37.6,26.5,29.83,WSW,247,7.0,18.0,64,0.00,,,-99.99,WeatherLink 5.7,2013-04-13 19:18:00,
2013-04-13 14:33:00,37.9,27.2,29.83,WSW,247,7.0,17.0,65,0.00,,,-99.99,WeatherLink 5.7,2013-04-13 19:33:00,
2013-04-13 14:48:00,38.8,27.3,29.83,West,270,6.0,19.0,63,0.00,,,-99.99,WeatherLink 5.7,2013-04-13 19:48:00,
2013-04-13 15:03:00,38.9,27.0,29.83,West,270,6.0,18.0,62,0.00,,,-99.99,WeatherLink 5.7,2013-04-13 20:03:00,
2013-04-13 15:18:00,39.6,26.8,29.83,West,270,7.0,20.0,60,0.00,,,-99.99,WeatherLink 5.7,2013-04-13 20:18:00,
2013-04-13 15:33:00,40.3,27.5,29.83,WNW,292,6.0,21.0,60,0.00,,,-99.99,WeatherLink 5.7,2013-04-13 20:33:00,
2013-04-13 15:48:00,40.2,27.8,29.82,West,270,7.0,17.0,61,0.00,,,-99.99,WeatherLink 5.7,2013-04-13 20:48:00,
2013-04-13 16:03:00,39.6,27.6,29.82,WNW,292,8.0,21.0,62,0.00,,,-99.99,WeatherLink 5.7,2013-04-13 21:03:00,
2013-04-13 16:18:00,40.8,28.0,29.81,WNW,292,6.0,16.0,60,0.00,,,-99.99,WeatherLink 5.7,2013-04-13 21:18:00,
2013-04-13 16:33:00,40.5,26.9,29.82,WNW,292,7.0,22.0,58,0.00,,,-99.99,WeatherLink 5.7,2013-04-13 21:33:00,
2013-04-13 16:48:00,41.2,28.4,29.82,WNW,292,5.0,14.0,60,0.00,,,-99.99,WeatherLink 5.7,2013-04-13 21:48:00,
2013-04-13 17:03:00,40.8,27.2,29.82,West,270,7.0,21.0,58,0.00,,,-99.99,WeatherLink 5.7,2013-04-13 22:03:00,
2013-04-13 17:18:00,41.1,27.9,29.83,WNW,292,6.0,15.0,59,0.00,,,-99.99,WeatherLink 5.7,2013-04-13 22:18:00,
2013-04-13 17:33:00,41.2,27.9,29.83,West,270,5.0,13.0,59,0.00,,,-99.99,WeatherLink 5.7,2013-04-13 22:33:00,
2013-04-13 17:48:00,40.5,27.7,29.83,West,270,6.0,20.0,60,0.00,,,-99.99,WeatherLink 5.7,2013-04-13 22:48:00,
2013-04-13 18:03:00,40.9,27.7,29.83,WSW,247,5.0,18.0,59,0.00,,,-99.99,WeatherLink 5.7,2013-04-13 23:03:00,
2013-04-13 18:18:00,41.3,28.4,29.83,West,270,4.0,12.0,60,0.00,,,-99.99,WeatherLink 5.7,2013-04-13 23:18:00,
2013-04-13 18:33:00,41.2,27.5,29.83,WNW,292,5.0,16.0,58,0.00,,,-99.99,WeatherLink 5.7,2013-04-13 23:33:00,
2013-04-13 18:49:00,40.6,27.8,29.83,West,270,5.0,12.0,60,0.00,,,-99.99,WeatherLink 5.7,2013-04-13 23:49:00,
2013-04-13 19:03:00,40.5,28.1,29.83,WNW,292,3.0,13.0,61,0.00,,,-99.99,WeatherLink 5.7,2013-04-14 00:03:00,
2013-04-13 19:18:00,40.2,28.2,29.83,West,270,2.0,9.0,62,0.00,,,-99.99,WeatherLink 5.7,2013-04-14 00:18:00,
2013-04-13 19:33:00,39.8,28.2,29.83,WNW,292,1.0,6.0,63,0.00,,,-99.99,WeatherLink 5.7,2013-04-14 00:33:00,
2013-04-13 19:48:00,39.1,27.9,29.83,West,270,0.0,4.0,64,0.00,,,-99.99,WeatherLink 5.7,2013-04-14 00:48:00,
2013-04-13 20:03:00,38.5,27.7,29.83,North,-999,0.0,0.0,65,0.00,,,-99.99,WeatherLink 5.7,2013-04-14 01:03:00,
2013-04-13 20:18:00,37.3,27.3,29.83,North,-999,0.0,0.0,67,0.00,,,-99.99,WeatherLink 5.7,2013-04-14 01:18:00,
2013-04-13 20:33:00,36.2,27.4,29.84,North,-999,0.0,0.0,70,0.00,,,-99.99,WeatherLink 5.7,2013-04-14 01:33:00,
2013-04-13 20:48:00,34.9,26.8,29.85,North,-999,0.0,0.0,72,0.00,,,-99.99,WeatherLink 5.7,2013-04-14 01:48:00,
2013-04-13 21:03:00,34.0,26.3,29.85,North,-999,0.0,0.0,73,0.00,,,-99.99,WeatherLink 5.7,2013-04-14 02:03:00,
2013-04-13 21:18:00,33.1,26.0,29.85,North,-999,0.0,0.0,75,0.00,,,-99.99,WeatherLink 5.7,2013-04-14 02:18:00,
2013-04-13 21:33:00,32.4,26.0,29.85,North,-999,0.0,0.0,77,0.00,,,-99.99,WeatherLink 5.7,2013-04-14 02:33:00,
2013-04-13 21:48:00,31.9,26.1,29.86,North,-999,0.0,0.0,79,0.00,,,-99.99,WeatherLink 5.7,2013-04-14 02:48:00,
2013-04-13 22:03:00,31.8,26.3,29.87,North,-999,0.0,0.0,80,0.00,,,-99.99,WeatherLink 5.7,2013-04-14 03:03:00,
2013-04-13 22:18:00,32.1,27.2,29.87,North,-999,0.0,0.0,82,0.00,,,-99.99,WeatherLink 5.7,2013-04-14 03:18:00,
2013-04-13 22:33:00,32.2,27.6,29.87,North,-999,0.0,0.0,83,0.00,,,-99.99,WeatherLink 5.7,2013-04-14 03:33:00,
2013-04-13 22:48:00,32.2,27.6,29.88,North,-999,0.0,0.0,83,0.00,,,-99.99,WeatherLink 5.7,2013-04-14 03:48:00,
2013-04-13 23:03:00,32.7,28.4,29.88,North,-999,0.0,0.0,84,0.00,,,-99.99,WeatherLink 5.7,2013-04-14 04:03:00,
2013-04-13 23:18:00,32.9,28.6,29.88,North,-999,0.0,0.0,84,0.00,,,-99.99,WeatherLink 5.7,2013-04-14 04:18:00,
2013-04-13 23:33:00,33.1,29.1,29.88,North,-999,0.0,0.0,85,0.00,,,-99.99,WeatherLink 5.7,2013-04-14 04:33:00,
2013-04-13 23:48:00,33.5,29.2,29.88,North,-999,0.0,0.0,84,0.00,,,-99.99,WeatherLink 5.7,2013-04-14 04:48:00,